Airport details for: EETN (Estonia)

Metar

EETN 250920Z 26009KT 4500 SNRA OVC005 01/01 Q1013 R08/290195 TEMPO 3000 BR OVC003

General details

ICAO: EETN
IATA: TLL
Name (city): Lennart Meri
Major:
Country: Estonia
vACC: VACC Estonia
Description:


Lennart Meri Tallinn Airport is the largest airport in Estonia and home base of the national virtual airline flyJH - Your Airways. The airport has a single asphalt-concrete runway that is 3070 meters long and 45 meters wide, five taxiways and fourteen terminal gates.

Scenery links:
FS9 scenery: Download
FSX/P3D scenery: Download
XP scenery: Download
Elevation: 131 ft.
Transition altitude: 5000 ft.
MSA: 10000 ft.
Latitude: 59.413333
Longitude: 24.8325
EETN Charts
EETN Notams
EETN Online stations

Runways

Number Course Length Elevation Lat Lon ILS ILS freq ILS FAC GP
08 83° 10072ft / 3070 m 129ft 59.413325 24.810153 108.3 83° 3.0°
26 263° 10072ft / 3070 m 131ft 59.413192 24.859811 109.3 263° 3.0°